Time;durP1;ratioP1;P1;durP2;ratioP2;P2;SDS_P1;SDS_P2;PMS_P1;PMS_P2;Temp;Humidity;BMP_temperature;BMP_pressure;BME280_temperature;BME280_humidity;BME280_pressure;Samples;Min_cycle;Max_cycle;Signal;HPM_P1;HPM_P2
2022/12/26 00:01:50;;;;;;;32.25;24.15;;;11.60;99.90;;;11.82;100.00;100871.63;5055464;28;20427;-59
2022/12/26 00:04:19;;;;;;;37.30;26.45;;;11.60;99.90;;;11.82;100.00;100856.59;5055824;28;20119;-59
2022/12/26 00:07:09;;;;;;;35.35;26.77;;;11.60;99.90;;;11.88;100.00;100859.19;5055121;28;20048;-59
2022/12/26 00:09:37;;;;;;;34.85;26.45;;;11.60;99.90;;;11.87;100.00;100864.50;5055539;28;20453;-59
2022/12/26 00:12:06;;;;;;;34.65;25.58;;;11.60;99.90;;;11.91;100.00;100860.91;5055820;28;20045;-59
2022/12/26 00:14:34;;;;;;;35.60;25.38;;;11.60;99.90;;;11.86;100.00;100868.06;5055181;28;20123;-60
2022/12/26 00:17:02;;;;;;;32.33;24.20;;;11.60;99.90;;;11.91;100.00;100866.22;5055212;28;20044;-59
2022/12/26 00:19:31;;;;;;;32.30;24.83;;;11.60;99.90;;;11.88;100.00;100875.09;5055194;28;20053;-59
2022/12/26 00:21:59;;;;;;;32.08;23.95;;;11.60;99.90;;;11.82;100.00;100876.91;5055117;28;20132;-59
2022/12/26 00:24:29;;;;;;;33.50;24.95;;;11.60;99.90;;;11.79;100.00;100876.06;5055327;28;20069;-59
2022/12/26 00:26:57;;;;;;;31.83;23.83;;;11.60;99.90;;;11.71;100.00;100855.84;5054914;28;20410;-59
2022/12/26 00:29:26;;;;;;;34.25;24.90;;;11.60;99.90;;;11.90;100.00;100881.28;5055151;28;20044;-59
2022/12/26 00:31:54;;;;;;;35.03;25.52;;;11.60;99.90;;;11.88;100.00;100874.22;5055166;28;20048;-59
2022/12/26 00:34:23;;;;;;;34.90;25.23;;;11.60;99.90;;;11.90;100.00;100883.03;5054890;28;20053;-60
2022/12/26 00:36:51;;;;;;;33.13;24.75;;;11.60;99.90;;;11.87;100.00;100880.41;5054814;28;20048;-60
2022/12/26 00:39:19;;;;;;;33.90;24.80;;;11.60;99.90;;;11.85;100.00;100888.38;5055254;28;20139;-60
2022/12/26 00:41:49;;;;;;;31.85;24.42;;;11.60;99.90;;;11.84;100.00;100876.03;5055269;28;20092;-60
2022/12/26 00:44:17;;;;;;;34.85;24.88;;;11.60;99.90;;;11.81;100.00;100872.53;5054539;28;20037;-59
2022/12/26 00:46:46;;;;;;;32.65;24.55;;;11.60;99.90;;;11.85;100.00;100882.19;5054619;28;20064;-59
2022/12/26 00:49:14;;;;;;;32.88;24.60;;;11.60;99.90;;;11.86;100.00;100879.53;5070119;28;20056;-60
2022/12/26 00:51:42;;;;;;;32.60;23.63;;;11.60;99.90;;;11.59;100.00;100842.66;5054489;28;20049;-60
2022/12/26 00:54:11;;;;;;;29.02;22.00;;;11.50;99.90;;;11.75;100.00;100871.69;5054445;28;20045;-59
2022/12/26 00:56:39;;;;;;;30.98;23.60;;;11.50;99.90;;;11.76;100.00;100861.97;5054686;28;20033;-60
2022/12/26 00:59:09;;;;;;;30.40;22.40;;;11.50;99.90;;;11.73;100.00;100865.50;5054225;28;20422;-59
2022/12/26 01:01:37;;;;;;;30.25;22.02;;;11.50;99.90;;;11.65;100.00;100867.34;5054348;28;20727;-60
2022/12/26 01:04:06;;;;;;;28.08;20.85;;;11.40;99.90;;;11.54;100.00;100840.03;5054295;28;20135;-59
2022/12/26 01:06:34;;;;;;;27.83;20.63;;;11.40;99.90;;;11.65;100.00;100861.16;5054185;28;20248;-60
2022/12/26 01:09:03;;;;;;;27.40;19.90;;;11.40;99.90;;;11.57;100.00;100849.75;5054168;28;20521;-59
2022/12/26 01:11:40;;;;;;;27.23;19.52;;;11.30;99.90;;;11.62;100.00;100848.81;5054333;28;20120;-59
2022/12/26 01:14:14;;;;;;;30.15;20.20;;;11.40;99.90;;;11.49;100.00;100825.97;5053140;28;20049;-62
2022/12/26 01:16:45;;;;;;;26.65;19.05;;;11.40;99.90;;;11.65;100.00;100856.75;5053125;28;20080;-61
2022/12/26 01:19:14;;;;;;;25.92;19.98;;;11.40;99.90;;;11.68;100.00;100854.09;5053865;28;20041;-62
2022/12/26 01:21:43;;;;;;;28.90;19.50;;;11.40;99.90;;;11.61;100.00;100854.97;5054021;28;20052;-62
2022/12/26 01:24:12;;;;;;;23.23;18.65;;;11.40;99.90;;;11.61;100.00;100847.03;5053928;28;20045;-61
2022/12/26 01:26:41;;;;;;;22.25;18.65;;;11.30;99.90;;;11.54;100.00;100826.81;5053867;28;20503;-64
2022/12/26 01:29:10;;;;;;;23.55;18.23;;;11.40;99.90;;;11.37;100.00;100822.53;5053700;28;20048;-65
2022/12/26 01:31:38;;;;;;;25.23;19.02;;;11.40;99.90;;;11.63;100.00;100860.28;5053579;28;20044;-71
2022/12/26 01:34:08;;;;;;;23.17;18.65;;;11.40;99.90;;;11.63;100.00;100861.16;5053737;28;20045;-64
2022/12/26 01:36:36;;;;;;;22.88;18.23;;;11.40;99.90;;;11.61;100.00;100864.72;5053537;28;20040;-64
2022/12/26 01:39:05;;;;;;;22.70;17.52;;;11.40;99.90;;;11.59;100.00;100867.34;5053663;28;20131;-64
2022/12/26 01:41:33;;;;;;;21.45;17.42;;;11.30;99.90;;;11.51;100.00;100857.75;5053898;28;20099;-64
2022/12/26 01:44:04;;;;;;;26.08;18.52;;;11.30;99.90;;;11.58;100.00;100865.63;5053568;28;20487;-64
2022/12/26 01:46:39;;;;;;;21.10;17.58;;;11.40;99.90;;;11.55;100.00;100856.81;5054072;28;20052;-64
2022/12/26 01:49:15;;;;;;;23.05;17.83;;;11.40;99.90;;;11.65;100.00;100870.00;5053460;28;20056;-64
2022/12/26 01:51:51;;;;;;;23.23;17.85;;;11.40;99.90;;;11.73;100.00;100870.81;5053684;28;20127;-64
2022/12/26 01:54:20;;;;;;;21.65;17.55;;;11.50;99.90;;;11.72;100.00;100879.66;5053919;28;20047;-64
2022/12/26 01:57:15;;;;;;;21.95;17.38;;;11.40;99.90;;;11.76;100.00;100872.56;5053424;28;20499;-64
2022/12/26 01:59:46;;;;;;;22.80;17.80;;;11.40;99.90;;;11.62;100.00;100864.69;5053536;28;20060;-64
2022/12/26 02:02:18;;;;;;;21.25;18.05;;;11.40;99.90;;;11.63;100.00;100855.84;5053312;28;20483;-64
2022/12/26 02:07:41;;;;;;;22.73;18.23;;;11.40;99.90;;;11.62;100.00;100859.41;5053281;28;20045;-64
2022/12/26 02:10:15;;;;;;;21.60;17.08;;;11.40;99.90;;;11.65;100.00;100858.50;5053086;28;20044;-64
2022/12/26 02:12:45;;;;;;;21.92;17.45;;;11.40;99.90;;;11.70;100.00;100872.63;5053198;28;20037;-65
2022/12/26 02:15:17;;;;;;;21.20;18.88;;;11.40;99.90;;;11.71;100.00;100869.09;5053618;28;20076;-64
2022/12/26 02:17:48;;;;;;;21.42;17.48;;;11.50;99.90;;;11.57;100.00;100861.22;5053379;28;20124;-64
2022/12/26 02:20:21;;;;;;;20.33;17.15;;;11.40;99.90;;;11.58;100.00;100865.63;5053215;28;20072;-64
2022/12/26 02:23:40;;;;;;;22.63;17.17;;;11.40;99.90;;;11.47;100.00;100843.66;5053387;28;20048;-65
2022/12/26 02:27:09;;;;;;;22.48;17.08;;;11.30;99.90;;;11.56;100.00;100848.84;5053462;28;20041;-65
2022/12/26 02:30:10;;;;;;;20.98;17.08;;;11.30;99.90;;;11.59;100.00;100854.13;5049592;28;20422;-64
2022/12/26 02:33:45;;;;;;;22.52;18.00;;;11.30;99.90;;;11.58;100.00;100847.06;5053484;28;20120;-65
2022/12/26 02:36:47;;;;;;;21.27;18.30;;;11.30;99.90;;;11.55;100.00;100857.72;4977351;28;20130;-64
2022/12/26 02:39:37;;;;;;;23.10;18.00;;;11.30;99.90;;;11.55;100.00;100857.72;5052380;28;20091;-64
2022/12/26 02:42:25;;;;;;;23.25;18.42;;;11.30;99.90;;;11.46;100.00;100848.94;5052998;28;20128;-65
2022/12/26 02:47:55;;;;;;;21.20;18.90;;;11.30;99.90;;;11.45;100.00;100863.97;5051713;28;20453;-65
2022/12/26 03:14:16;;;;;;;19.73;17.65;;;11.10;99.90;;;11.13;100.00;100873.06;5044441;28;20132;-65
2022/12/26 03:19:56;;;;;;;;;;;10.90;99.90;;;11.12;100.00;100884.50;5053116;28;20132;-65
2022/12/26 03:22:34;;;;;;;22.40;17.83;;;10.90;99.90;;;10.86;100.00;100808.81;5052733;28;19954;-65
2022/12/26 03:27:54;;;;;;;20.13;17.67;;;10.80;99.90;;;10.95;100.00;100837.00;5051619;28;20517;-65
2022/12/26 03:34:16;;;;;;;17.40;15.50;;;10.80;99.90;;;10.95;100.00;100837.00;5052358;28;20069;-64
2022/12/26 03:35:57;;;;;;;18.00;14.98;;;10.80;99.90;;;11.03;100.00;100840.47;5050980;28;20075;-64
2022/12/26 03:38:35;;;;;;;18.08;15.52;;;10.80;99.90;;;10.80;100.00;100810.63;5052219;28;20040;-64
2022/12/26 04:19:24;;;;;;;14.10;10.75;;;10.50;99.90;;;10.58;100.00;100857.47;5070835;28;20045;-65
2022/12/26 04:44:48;;;;;;;12.68;8.68;;;10.40;99.90;;;10.63;100.00;100857.44;5054720;28;20128;-65
2022/12/26 04:47:18;;;;;;;19.27;11.77;;;10.40;99.90;;;10.66;100.00;100858.34;5054703;28;20055;-66
2022/12/26 04:55:15;;;;;;;10.60;8.50;;;10.50;99.90;;;10.68;100.00;100824.78;5054435;28;20119;-65
2022/12/26 04:57:43;;;;;;;11.65;7.90;;;10.50;99.90;;;10.60;100.00;100808.09;5070088;28;20143;-65
2022/12/26 05:00:13;;;;;;;11.07;7.85;;;10.50;99.90;;;10.70;100.00;100827.44;5054401;28;20057;-65
2022/12/26 05:11:29;;;;;;;9.43;7.50;;;10.50;99.90;;;10.55;100.00;100814.31;5054337;28;20060;-65
2022/12/26 05:13:58;;;;;;;8.45;7.20;;;10.50;99.90;;;10.79;100.00;100849.44;5054228;28;20049;-66
2022/12/26 05:30:28;;;;;;;9.77;6.90;;;10.70;99.90;;;10.87;100.00;100826.47;5054360;28;20072;-65
2022/12/26 05:35:44;;;;;;;11.60;7.75;;;10.70;99.90;;;10.85;100.00;100844.09;5054077;28;20123;-65
2022/12/26 05:38:12;;;;;;;9.20;8.03;;;10.70;99.90;;;10.86;100.00;100826.44;5054000;28;20432;-65
2022/12/26 05:40:41;;;;;;;9.50;7.30;;;10.70;99.90;;;10.87;100.00;100829.09;5053584;28;20519;-65
2022/12/26 05:43:09;;;;;;;9.93;7.75;;;10.60;99.90;;;10.93;100.00;100832.59;5053542;28;20487;-65
2022/12/26 05:45:37;;;;;;;9.57;8.50;;;10.70;99.90;;;10.87;100.00;100841.44;5053598;28;20103;-65
2022/12/26 05:48:06;;;;;;;10.98;7.57;;;10.70;99.90;;;10.76;100.00;100806.25;5053553;28;20043;-65
2022/12/26 05:50:34;;;;;;;9.65;7.68;;;10.70;99.90;;;10.85;100.00;100841.47;5053454;28;20052;-65
2022/12/26 05:53:04;;;;;;;11.48;8.43;;;10.70;99.90;;;10.80;100.00;100819.41;5053332;28;20553;-65
2022/12/26 05:55:33;;;;;;;8.77;7.73;;;10.70;99.90;;;10.84;100.00;100842.34;5053300;28;20055;-66
2022/12/26 05:58:01;;;;;;;12.93;8.30;;;10.70;99.90;;;10.85;100.00;100835.28;5053309;28;20410;-66
2022/12/26 06:00:31;;;;;;;10.35;8.10;;;10.60;99.90;;;10.86;100.00;100831.72;5053053;28;20057;-66
2022/12/26 06:03:00;;;;;;;9.05;7.68;;;10.70;99.90;;;10.82;100.00;100841.47;5053409;28;20055;-66
2022/12/26 06:05:29;;;;;;;10.45;7.38;;;10.60;99.90;;;10.86;100.00;100850.25;5053375;28;20071;-66
2022/12/26 06:07:58;;;;;;;12.15;7.55;;;10.70;99.90;;;10.79;100.00;100835.31;5053432;28;20433;-65
2022/12/26 06:10:28;;;;;;;10.18;6.82;;;10.70;99.90;;;10.70;100.00;100824.78;5053737;28;20454;-66
2022/12/26 06:12:57;;;;;;;14.10;8.40;;;10.60;99.90;;;10.87;100.00;100841.44;5053098;28;20048;-66
2022/12/26 06:15:25;;;;;;;9.00;7.57;;;10.60;99.90;;;10.87;100.00;100852.91;5053004;28;20041;-66
2022/12/26 06:17:55;;;;;;;11.10;6.97;;;10.70;99.90;;;10.86;100.00;100850.25;5053295;28;20447;-66
2022/12/26 06:20:23;;;;;;;10.55;7.57;;;10.60;99.90;;;10.76;100.00;100840.63;5053319;28;20131;-66
2022/12/26 06:22:52;;;;;;;10.38;7.88;;;10.60;99.90;;;10.72;100.00;100855.63;5051982;28;20445;-66
2022/12/26 06:25:20;;;;;;;10.13;7.20;;;10.50;99.90;;;10.79;100.00;100846.78;5052845;28;20491;-66
2022/12/26 06:27:50;;;;;;;11.10;7.38;;;10.50;99.90;;;10.86;100.00;100844.97;5052819;28;20525;-65
2022/12/26 06:30:18;;;;;;;10.90;7.13;;;10.60;99.90;;;10.86;100.00;100853.78;5052859;28;20052;-65
2022/12/26 06:32:47;;;;;;;10.43;7.38;;;10.60;99.90;;;9.84;100.00;100662.22;5052760;28;20037;-65
2022/12/26 06:35:15;;;;;;;12.48;7.88;;;10.60;99.90;;;10.81;100.00;100839.72;5053099;28;20041;-65
2022/12/26 06:37:43;;;;;;;12.20;7.85;;;10.60;99.90;;;10.57;100.00;100807.22;5052750;28;20045;-65
2022/12/26 06:40:13;;;;;;;9.40;7.68;;;10.60;99.90;;;10.64;100.00;100806.31;5051731;28;20110;-66
2022/12/26 06:42:41;;;;;;;9.77;8.05;;;10.60;99.90;;;10.83;100.00;100852.94;5051711;28;20132;-65
2022/12/26 06:45:12;;;;;;;10.38;7.45;;;10.70;99.90;;;10.78;100.00;100839.72;5052979;28;20048;-66
2022/12/26 06:47:40;;;;;;;11.05;7.75;;;10.60;99.90;;;10.81;100.00;100860.00;5052744;28;20098;-65
2022/12/26 06:50:09;;;;;;;9.98;7.80;;;10.60;99.90;;;10.85;100.00;100859.09;5052703;28;20651;-65
2022/12/26 06:52:38;;;;;;;10.27;7.10;;;10.70;99.90;;;10.90;100.00;100857.28;5052610;28;20064;-65
2022/12/26 06:55:07;;;;;;;13.23;7.78;;;10.70;99.90;;;10.90;100.00;100852.88;5068391;28;20060;-65
2022/12/26 06:57:35;;;;;;;10.38;7.13;;;10.70;99.90;;;10.89;100.00;100842.31;5052921;28;20048;-65
2022/12/26 07:00:05;;;;;;;10.07;7.50;;;10.70;99.90;;;10.86;100.00;100855.53;5053041;28;20057;-65
2022/12/26 07:02:35;;;;;;;11.40;7.97;;;10.70;99.90;;;10.77;100.00;100845.91;5052917;28;20045;-65
2022/12/26 07:05:05;;;;;;;11.32;7.00;;;10.60;99.90;;;10.84;100.00;100838.78;5053145;28;20044;-65
2022/12/26 07:07:33;;;;;;;12.32;7.95;;;10.70;99.90;;;10.97;100.00;100837.84;5052799;28;20049;-65
2022/12/26 07:10:01;;;;;;;11.75;6.97;;;10.70;99.90;;;10.92;100.00;100844.94;5052508;28;20556;-65
2022/12/26 07:12:30;;;;;;;14.00;7.03;;;10.70;99.90;;;10.77;100.00;100819.47;5052901;28;20047;-65
2022/12/26 07:14:58;;;;;;;13.00;7.60;;;10.70;99.90;;;10.96;100.00;100867.84;5052695;28;20486;-65
2022/12/26 07:17:29;;;;;;;12.07;7.03;;;10.70;99.90;;;10.95;100.00;100857.28;5054722;28;20053;-65
2022/12/26 07:19:59;;;;;;;13.73;7.28;;;10.80;99.90;;;10.99;100.00;100870.50;5056289;28;20044;-66
2022/12/26 07:22:28;;;;;;;15.77;7.13;;;10.80;99.90;;;10.93;100.00;100846.69;5055222;28;20072;-65
2022/12/26 07:24:56;;;;;;;12.85;7.05;;;10.80;99.90;;;10.71;100.00;100815.97;5056510;28;20073;-65
2022/12/26 07:27:25;;;;;;;10.10;6.43;;;10.70;99.90;;;10.17;100.00;100736.94;5056422;28;20072;-65
2022/12/26 07:29:54;;;;;;;12.45;6.40;;;10.70;99.90;;;10.87;100.00;100881.13;5056358;28;20063;-64
2022/12/26 07:32:22;;;;;;;13.98;7.00;;;10.70;99.90;;;10.83;100.00;100874.09;5055935;28;20052;-65
2022/12/26 07:34:50;;;;;;;12.68;7.40;;;10.70;99.90;;;10.80;100.00;100876.78;5055974;28;20045;-64
2022/12/26 07:37:20;;;;;;;14.27;8.07;;;10.60;99.90;;;10.77;100.00;100864.44;5056125;28;20483;-64
2022/12/26 07:39:49;;;;;;;13.03;7.33;;;10.60;99.90;;;10.83;100.00;100875.00;5055917;28;20095;-65
2022/12/26 07:42:25;;;;;;;11.90;7.10;;;10.60;99.90;;;10.83;100.00;100874.09;5056240;28;20064;-64
2022/12/26 07:44:54;;;;;;;15.80;7.78;;;10.60;99.90;;;10.82;100.00;100867.03;5055820;28;20095;-65
2022/12/26 07:47:22;;;;;;;13.95;6.80;;;10.60;99.90;;;10.87;100.00;100874.09;5056054;28;20602;-64
2022/12/26 07:49:50;;;;;;;13.10;7.20;;;10.60;99.90;;;10.87;100.00;100866.16;5055951;28;20131;-64
2022/12/26 07:52:21;;;;;;;15.88;7.03;;;10.70;99.90;;;10.70;100.00;100845.97;5054547;28;20462;-65
2022/12/26 07:54:50;;;;;;;12.88;6.95;;;10.70;99.90;;;10.86;100.00;100869.66;5056019;28;20053;-64
2022/12/26 07:57:19;;;;;;;16.33;6.57;;;10.70;99.90;;;10.87;100.00;100892.59;5055775;28;20041;-65
2022/12/26 08:00:10;;;;;;;8.88;6.55;;;10.70;99.90;;;10.98;100.00;100891.63;5055443;28;20060;-65
2022/12/26 08:02:41;;;;;;;16.05;7.05;;;10.70;99.90;;;10.92;100.00;100903.16;5055312;28;20048;-64
2022/12/26 08:05:10;;;;;;;18.05;6.80;;;10.70;99.90;;;10.95;100.00;100932.25;5055572;28;20045;-64
2022/12/26 08:07:39;;;;;;;11.15;7.22;;;10.80;99.90;;;11.09;100.00;100940.13;5055400;28;20049;-67
2022/12/26 08:10:09;;;;;;;11.50;5.32;;;10.90;99.90;;;11.08;100.00;100943.66;5055417;28;20075;-65
2022/12/26 08:12:38;;;;;;;10.05;5.72;;;10.90;99.90;;;10.96;100.00;100938.41;5071415;28;20056;-67
2022/12/26 08:15:09;;;;;;;11.80;5.22;;;10.80;99.90;;;10.90;100.00;100950.78;5055255;28;20072;-66
2022/12/26 08:17:37;;;;;;;7.65;4.53;;;10.80;99.90;;;10.78;100.00;100956.13;5055554;28;20099;-66
2022/12/26 08:20:07;;;;;;;7.80;4.15;;;10.60;99.90;;;10.47;100.00;100943.03;5055130;28;20474;-66
2022/12/26 08:22:35;;;;;;;14.73;4.10;;;10.40;99.90;;;10.52;100.00;100941.25;5054240;28;20372;-67
2022/12/26 08:25:07;;;;;;;10.50;4.50;;;10.40;99.90;;;10.45;100.00;100944.81;5055470;28;20049;-68
2022/12/26 08:27:36;;;;;;;10.10;4.22;;;10.40;99.90;;;10.64;100.00;100967.66;5054829;28;20041;-66
2022/12/26 08:30:05;;;;;;;12.88;4.80;;;10.40;99.90;;;10.64;100.00;100967.66;5055095;28;20041;-66
2022/12/26 08:32:33;;;;;;;11.38;4.78;;;10.40;99.90;;;10.73;100.00;100975.56;5055511;28;20431;-66
2022/12/26 08:35:06;;;;;;;17.67;5.53;;;10.50;99.90;;;10.26;100.00;100899.00;5054852;28;20071;-66
2022/12/26 08:37:35;;;;;;;15.63;4.93;;;10.50;99.90;;;10.84;100.00;100992.25;5070099;28;20094;-66
2022/12/26 08:40:06;;;;;;;19.38;5.63;;;10.60;99.90;;;10.85;100.00;100991.41;5055409;28;20045;-66
2022/12/26 08:42:34;;;;;;;24.23;5.63;;;10.60;99.90;;;11.01;100.00;101005.44;5054894;28;20060;-65
2022/12/26 08:45:23;;;;;;;24.15;5.80;;;10.80;99.90;;;10.95;100.00;101016.94;5055333;28;20099;-65
2022/12/26 08:47:54;;;;;;;19.95;5.53;;;10.70;99.90;;;10.67;100.00;100967.63;5054821;28;20063;-65
2022/12/26 08:50:23;;;;;;;21.88;6.30;;;10.70;99.90;;;11.07;99.83;101037.19;5054833;28;20479;-64
2022/12/26 08:52:52;;;;;;;26.40;6.40;;;10.80;99.90;;;10.81;99.33;101030.22;5054852;28;20049;-67
2022/12/26 08:55:22;;;;;;;29.45;6.47;;;10.80;99.90;;;10.89;99.28;101054.91;5054820;28;20083;-64
2022/12/26 08:57:50;;;;;;;25.98;7.03;;;10.70;99.90;;;10.76;99.13;101070.81;5054743;28;20069;-63
2022/12/26 09:00:22;;;;;;;32.53;7.88;;;10.60;99.90;;;10.45;98.10;101071.72;5054332;28;20076;-64
2022/12/26 09:02:52;;;;;;;26.77;6.88;;;10.40;99.90;;;9.97;97.97;101072.53;5054609;28;20072;-63
2022/12/26 09:05:20;;;;;;;28.95;6.85;;;10.00;99.90;;;9.91;98.39;101097.19;5054247;28;20053;-63
2022/12/26 09:07:49;;;;;;;24.73;6.70;;;9.80;99.90;;;9.81;97.35;101092.78;5054543;28;20453;-64
2022/12/26 09:10:18;;;;;;;25.42;6.25;;;9.70;99.90;;;9.60;95.62;101108.56;5054112;28;20051;-63
2022/12/26 09:12:47;;;;;;;27.08;6.20;;;9.50;99.90;;;9.63;96.12;101132.34;5053100;28;20072;-61
2022/12/26 09:15:16;;;;;;;23.67;6.43;;;9.50;99.90;;;9.59;95.34;101114.75;5054263;28;20136;-63
2022/12/26 09:17:44;;;;;;;17.67;5.38;;;9.50;99.90;;;9.53;95.81;101130.56;5054049;28;20064;-64
2022/12/26 09:20:12;;;;;;;23.30;5.60;;;9.40;99.90;;;9.28;95.83;101126.03;5053837;28;20074;-64
2022/12/26 09:22:50;;;;;;;20.00;5.72;;;9.30;99.90;;;9.15;94.26;101149.72;5053931;28;20049;-65
2022/12/26 09:25:19;;;;;;;19.73;5.85;;;9.10;99.90;;;9.23;94.35;101158.56;5053848;28;20098;-63
2022/12/26 09:27:52;;;;;;;30.83;6.22;;;9.10;99.90;;;9.01;94.29;101152.28;5053835;28;20040;-63
2022/12/26 09:30:26;;;;;;;23.17;5.78;;;9.00;99.90;;;9.12;93.86;101170.81;5053813;28;20033;-62
2022/12/26 09:32:55;;;;;;;24.73;5.50;;;9.00;99.90;;;8.94;93.66;101161.03;5053670;28;20033;-64
2022/12/26 09:35:23;;;;;;;19.83;6.05;;;8.90;99.90;;;8.91;93.32;101176.81;5053795;28;20477;-62
2022/12/26 09:37:52;;;;;;;13.55;5.05;;;8.80;99.90;;;8.91;93.26;101193.53;5053622;28;20041;-63
2022/12/26 09:40:24;;;;;;;14.55;5.47;;;8.80;99.90;;;8.31;92.92;101084.06;5052629;28;20453;-61
2022/12/26 09:43:05;;;;;;;16.05;5.15;;;8.90;99.90;;;8.81;92.73;101202.25;5053613;28;20072;-62
2022/12/26 09:45:54;;;;;;;;;;;8.80;99.90;;;8.76;92.25;101211.88;5069419;28;20102;-61
2022/12/26 09:48:32;;;;;;;16.50;5.20;;;8.60;99.90;;;8.80;91.88;101220.69;5069143;28;19928;-62
2022/12/26 09:51:00;;;;;;;16.55;5.55;;;8.70;99.90;;;8.85;91.10;101204.03;5053747;28;20122;-62
2022/12/26 09:53:35;;;;;;;29.85;5.63;;;8.80;99.90;;;8.71;91.00;101189.00;5052302;28;20482;-62
2022/12/26 09:56:08;;;;;;;19.73;5.40;;;8.80;99.90;;;8.64;90.15;101224.06;5053663;28;20126;-62
2022/12/26 09:58:56;;;;;;;17.98;5.32;;;8.60;99.90;;;8.54;90.26;101196.75;5053297;28;20491;-61
2022/12/26 10:01:28;;;;;;;16.98;5.63;;;8.60;99.90;;;8.65;90.72;101207.41;5053271;28;20507;-64
2022/12/26 10:03:59;;;;;;;14.52;5.10;;;8.60;99.90;;;8.76;90.50;101232.97;5053556;28;20366;-63
2022/12/26 10:06:35;;;;;;;21.60;5.47;;;8.60;99.90;;;8.86;90.28;101226.03;5053234;28;20044;-64
2022/12/26 10:09:45;;;;;;;23.95;6.60;;;8.70;99.90;;;8.97;90.13;101248.09;5053302;28;20499;-65
2022/12/26 10:12:32;;;;;;;19.15;5.40;;;8.80;99.90;;;9.07;89.66;101236.75;5031485;28;20057;-64
2022/12/26 10:15:15;;;;;;;20.85;5.35;;;9.00;99.90;;;8.67;87.45;101232.88;5053115;28;20550;-64
2022/12/26 10:17:52;;;;;;;15.80;5.38;;;8.70;99.90;;;8.50;85.34;101188.78;5053317;28;20041;-65
2022/12/26 10:20:32;;;;;;;15.45;4.93;;;8.70;99.90;;;8.87;84.85;101227.78;5053126;28;20045;-65
2022/12/26 10:23:29;;;;;;;20.53;5.00;;;8.80;99.90;;;8.66;85.11;101202.13;5053131;28;20045;-63
2022/12/26 10:26:06;;;;;;;17.60;5.65;;;8.80;99.90;;;8.85;84.99;101251.50;5052754;28;20509;-65
2022/12/26 10:28:39;;;;;;;13.43;4.88;;;8.80;99.90;;;8.88;85.21;101270.00;5052623;28;20041;-62
2022/12/26 10:31:19;;;;;;;12.02;5.35;;;8.70;99.90;;;8.90;84.62;101268.25;5052993;28;20064;-65
2022/12/26 10:33:53;;;;;;;24.55;5.28;;;8.80;99.90;;;8.48;85.18;101245.91;5052574;28;20073;-64
2022/12/26 10:36:32;;;;;;;13.38;4.40;;;8.60;99.90;;;8.80;84.51;101281.38;5052715;28;20036;-65
2022/12/26 10:39:05;;;;;;;18.17;4.90;;;8.60;99.90;;;8.26;83.93;101199.09;5052685;28;20045;-65
2022/12/26 10:41:42;;;;;;;15.07;5.63;;;8.70;99.90;;;8.70;83.47;101290.06;5052824;28;20439;-64
2022/12/26 10:44:11;;;;;;;17.85;4.53;;;8.60;99.90;;;8.73;82.28;101292.72;5052450;28;20140;-64
2022/12/26 10:47:14;;;;;;;14.10;4.80;;;8.70;99.90;;;8.80;81.79;101298.09;5052533;28;20098;-65
2022/12/26 10:49:45;;;;;;;10.52;5.32;;;8.70;99.90;;;8.95;81.59;101308.78;5052547;28;20494;-65
2022/12/26 10:52:17;;;;;;;13.02;4.32;;;8.80;99.90;;;8.82;80.69;101287.53;5056109;28;20460;-64
2022/12/26 10:54:50;;;;;;;16.40;4.57;;;8.80;99.90;;;8.86;80.42;101307.81;5056658;28;20465;-67
2022/12/26 10:57:41;;;;;;;12.10;4.90;;;8.80;99.90;;;8.87;80.73;101291.09;5056677;28;20048;-66
2022/12/26 11:00:19;;;;;;;13.63;4.63;;;8.80;99.90;;;9.05;80.53;101310.63;5056433;28;20075;-63
2022/12/26 11:03:04;;;;;;;18.35;5.28;;;8.90;99.90;;;9.17;81.05;101320.41;5056874;28;20037;-63
2022/12/26 11:05:35;;;;;;;12.77;5.15;;;9.00;99.90;;;9.45;81.03;101311.81;5056548;28;20498;-63
2022/12/26 11:08:30;;;;;;;12.85;4.57;;;9.30;99.90;;;9.66;79.79;101322.50;5056655;28;20119;-64
2022/12/26 11:11:05;;;;;;;12.65;4.50;;;9.60;99.90;;;9.18;79.10;101232.41;5056506;28;20091;-63
2022/12/26 11:13:41;;;;;;;8.85;4.97;;;9.70;99.90;;;9.84;77.49;101332.31;5056248;28;20499;-65
2022/12/26 11:16:10;;;;;;;12.18;5.00;;;9.80;99.90;;;9.63;76.31;101318.97;5072097;28;20048;-66
2022/12/26 11:18:48;;;;;;;14.23;4.45;;;9.60;99.90;;;9.70;75.58;101337.50;5056728;28;20045;-65
2022/12/26 11:21:24;;;;;;;4.78;3.72;;;9.60;99.90;;;9.74;74.59;101302.31;5055286;28;20491;-66
2022/12/26 11:24:10;;;;;;;8.25;3.95;;;9.70;99.90;;;10.07;73.22;101350.94;5056375;28;20051;-66
2022/12/26 11:26:39;;;;;;;10.15;4.38;;;9.90;99.90;;;9.80;73.60;101328.78;5056287;28;20052;-64
2022/12/26 11:29:13;;;;;;;13.20;3.72;;;9.90;99.90;;;9.68;72.06;101367.41;5056011;28;20047;-66
2022/12/26 11:31:50;;;;;;;9.07;4.10;;;9.70;99.90;;;9.56;72.39;101372.63;5056007;28;20069;-65
2022/12/26 11:34:31;;;;;;;6.90;3.50;;;9.50;99.90;;;9.47;72.45;101370.78;5056414;28;20075;-64
2022/12/26 11:37:00;;;;;;;6.22;3.65;;;9.40;99.90;;;9.39;73.13;101382.19;5054963;28;20405;-64
2022/12/26 11:39:33;;;;;;;9.30;4.00;;;9.30;99.90;;;9.39;74.44;101379.53;5054656;28;20139;-66
2022/12/26 11:42:10;;;;;;;6.60;4.15;;;9.20;99.90;;;9.25;74.30;101358.31;5071780;28;20049;-64
2022/12/26 11:44:44;;;;;;;7.35;4.53;;;9.30;99.90;;;9.63;74.45;101366.50;5054895;28;20103;-65
2022/12/26 11:47:15;;;;;;;9.88;4.28;;;9.40;99.90;;;9.88;74.17;101361.41;5056354;28;20065;-65
2022/12/26 11:49:54;;;;;;;;;;;9.70;99.90;;;9.88;72.27;101374.63;5056602;28;20479;-65
2022/12/26 11:52:51;;;;;;;5.82;4.18;;;9.70;99.90;;;10.03;72.17;101371.19;5055635;28;19936;-64
2022/12/26 11:55:33;;;;;;;9.95;4.45;;;9.90;99.90;;;9.83;71.66;101375.47;5053367;28;20079;-66
2022/12/26 11:58:15;;;;;;;6.95;4.13;;;9.80;99.90;;;10.05;71.35;101387.94;5055573;28;20132;-66
2022/12/26 12:01:04;;;;;;;11.52;4.07;;;9.90;99.90;;;9.90;70.67;101388.72;5055447;28;20079;-65
2022/12/26 12:03:36;;;;;;;8.13;4.38;;;9.90;99.90;;;10.10;71.47;101390.63;5054841;28;20053;-65
2022/12/26 12:06:46;;;;;;;8.15;3.85;;;10.00;99.90;;;9.86;69.76;101391.34;5055839;28;20120;-66
2022/12/26 12:09:23;;;;;;;5.95;3.72;;;9.90;99.90;;;10.06;69.92;101402.03;5055352;28;20049;-66
2022/12/26 12:12:01;;;;;;;7.65;4.38;;;9.90;99.90;;;9.94;70.40;101385.22;5055270;28;20053;-64
2022/12/26 12:14:46;;;;;;;8.57;4.20;;;9.90;99.90;;;10.04;69.50;101400.25;5055489;28;20447;-62
2022/12/26 12:17:27;;;;;;;7.43;4.93;;;9.90;99.90;;;10.01;69.58;101402.00;5055441;28;20140;-63
2022/12/26 12:20:17;;;;;;;10.52;4.07;;;9.90;99.90;;;9.76;71.35;101408.88;5070894;28;20045;-61
2022/12/26 12:23:14;;;;;;;8.35;4.18;;;9.70;99.90;;;9.52;71.62;101410.44;5054411;28;20093;-62
2022/12/26 12:25:58;;;;;;;9.45;4.03;;;9.50;99.90;;;9.31;71.89;101411.13;5054726;28;20127;-64
2022/12/26 12:28:56;;;;;;;10.98;4.05;;;9.30;99.90;;;9.78;71.40;101428.25;5055013;28;20041;-64
2022/12/26 12:31:36;;;;;;;9.85;4.80;;;9.60;99.90;;;9.81;72.29;101419.50;5055018;28;20047;-63
2022/12/26 12:34:19;;;;;;;8.50;4.15;;;9.60;99.90;;;9.97;71.13;101416.94;5055008;28;20060;-63
2022/12/26 12:37:05;;;;;;;10.07;4.90;;;9.80;99.90;;;9.95;71.15;101416.06;5054915;28;20086;-65
2022/12/26 12:39:46;;;;;;;5.90;4.32;;;9.80;99.90;;;9.61;71.23;101406.13;5054945;28;20103;-63
2022/12/26 12:42:35;;;;;;;7.55;3.80;;;9.60;99.90;;;9.50;70.65;101413.09;5055056;28;20466;-65
2022/12/26 12:45:25;;;;;;;10.90;4.30;;;9.50;99.90;;;9.43;71.08;101413.88;5054976;28;20098;-65